Time;durP1;ratioP1;P1;durP2;ratioP2;P2;SDS_P1;SDS_P2;PMS_P1;PMS_P2;Temp;Humidity;BMP_temperature;BMP_pressure;BME280_temperature;BME280_humidity;BME280_pressure;Samples;Min_cycle;Max_cycle;Signal;HPM_P1;HPM_P2
2021/03/05 00:01:32;;;;;;;22.15;14.55;;;;;;;;;;6160495;28;20120;-85
2021/03/05 00:04:33;;;;;;;22.27;15.35;;;7.40;99.90;;;;;;6162941;28;20026;-86
2021/03/05 00:07:34;;;;;;;24.92;15.85;;;;;;;;;;6137735;28;20544;-86
2021/03/05 00:10:36;;;;;;;24.45;15.65;;;7.30;99.90;;;;;;6144490;28;20027;-85
2021/03/05 00:13:37;;;;;;;24.65;14.98;;;7.00;99.90;;;;;;6126262;28;20477;-89
2021/03/05 00:16:38;;;;;;;20.42;14.05;;;;;;;;;;6135592;28;20137;-85
2021/03/05 00:19:39;;;;;;;21.70;12.82;;;7.10;99.90;;;;;;6142145;28;20050;-85
2021/03/05 00:22:40;;;;;;;17.15;11.95;;;;;;;;;;6141983;28;20034;-91
2021/03/05 00:25:41;;;;;;;17.88;11.63;;;7.00;99.90;;;;;;6152272;28;20034;-87
2021/03/05 00:28:42;;;;;;;19.25;12.50;;;;;;;;;;6141663;28;20588;-85
2021/03/05 00:31:43;;;;;;;15.23;12.57;;;;;;;;;;6148429;28;20117;-89
2021/03/05 00:34:43;;;;;;;17.95;12.35;;;7.20;99.90;;;;;;6158165;28;20401;-89
2021/03/05 00:37:44;;;;;;;18.65;11.60;;;7.00;99.90;;;;;;6139543;28;20023;-85
2021/03/05 00:40:45;;;;;;;17.27;11.85;;;;;;;;;;6132391;28;20038;-85
2021/03/05 00:43:45;;;;;;;19.70;12.63;;;7.30;99.90;;;;;;6148340;28;20026;-85
2021/03/05 00:46:46;;;;;;;19.00;12.45;;;7.00;99.90;;;;;;6131521;28;20465;-88
2021/03/05 00:49:47;;;;;;;15.00;11.82;;;;;;;;;;6123962;28;20031;-85
2021/03/05 00:52:50;;;;;;;18.70;12.88;;;7.50;99.90;;;;;;6148603;28;20493;-86
2021/03/05 00:55:51;;;;;;;20.20;12.93;;;;;;;;;;6137282;28;20069;-86
2021/03/05 00:58:52;;;;;;;21.77;13.18;;;;;;;;;;6141518;28;20034;-87
2021/03/05 01:01:53;;;;;;;19.98;13.55;;;;;;;;;;6166820;28;20023;-85
2021/03/05 01:04:54;;;;;;;19.23;13.73;;;;;;;;;;6172294;28;20105;-86
2021/03/05 01:07:54;;;;;;;22.05;14.57;;;7.60;99.90;;;;;;6145909;28;20029;-85
2021/03/05 01:10:55;;;;;;;20.67;14.20;;;;;;;;;;6140321;28;20446;-86
2021/03/05 01:13:56;;;;;;;20.75;14.15;;;;;;;;;;6152912;28;20023;-88
2021/03/05 01:16:57;;;;;;;19.45;13.27;;;;;;;;;;6169151;28;20043;-88
2021/03/05 01:19:58;;;;;;;16.13;12.00;;;7.20;99.90;;;;;;6156111;28;20560;-87
2021/03/05 01:23:00;;;;;;;19.60;12.38;;;;;;;;;;6132427;28;20069;-89
2021/03/05 01:26:00;;;;;;;16.80;12.52;;;7.30;99.90;;;;;;6169587;28;20022;-91
2021/03/05 01:29:01;;;;;;;20.92;15.88;;;;;;;;;;6157833;28;20057;-86
2021/03/05 01:32:02;;;;;;;20.70;15.23;;;7.30;99.90;;;;;;6146163;28;20053;-86
2021/03/05 01:35:14;;;;;;;21.13;16.10;;;7.50;99.90;;;;;;6147053;28;20038;-85
2021/03/05 01:38:15;;;;;;;22.05;16.85;;;;;;;;;;6136810;28;20030;-88
2021/03/05 01:41:16;;;;;;;24.67;17.17;;;7.60;99.90;;;;;;6148610;28;20086;-85
2021/03/05 01:44:17;;;;;;;28.83;17.20;;;7.30;99.90;;;;;;6138076;28;20033;-86
2021/03/05 01:47:18;;;;;;;21.58;15.75;;;;;;;;;;6125688;28;20030;-86
2021/03/05 01:50:24;;;;;;;25.92;18.27;;;7.30;99.90;;;;;;6172200;28;20035;-87
2021/03/05 01:53:25;;;;;;;29.23;18.98;;;7.10;99.90;;;;;;6141475;28;20031;-85
2021/03/05 01:56:48;;;;;;;26.77;18.55;;;7.10;99.90;;;;;;6134959;28;20085;-85
2021/03/05 01:59:49;;;;;;;22.63;17.95;;;7.30;99.90;;;;;;6134065;28;20081;-85
2021/03/05 02:02:49;;;;;;;24.85;17.95;;;7.10;99.90;;;;;;6147055;28;20408;-85
2021/03/05 02:05:51;;;;;;;25.42;17.92;;;;;;;;;;6139720;28;20130;-85
2021/03/05 02:08:51;;;;;;;26.10;18.58;;;7.40;99.90;;;;;;6163010;28;20033;-88
2021/03/05 02:11:52;;;;;;;23.65;16.67;;;;;;;;;;6134850;28;20030;-86
2021/03/05 02:14:53;;;;;;;20.98;17.27;;;7.30;99.90;;;;;;6148806;28;20089;-85
2021/03/05 02:18:19;;;;;;;25.55;19.23;;;7.10;99.90;;;;;;6131921;28;20470;-87
2021/03/05 02:21:38;;;;;;;26.02;17.48;;;7.10;99.90;;;;;;6157724;28;20059;-86
2021/03/05 02:24:51;;;;;;;24.42;16.73;;;7.30;99.90;;;;;;6175964;28;20023;-85
2021/03/05 02:28:11;;;;;;;;;;;7.20;99.90;;;;;;6166656;28;20153;-85
2021/03/05 02:31:26;;;;;;;19.25;15.30;;;7.10;99.90;;;;;;6165957;28;19910;-84
2021/03/05 02:34:31;;;;;;;21.33;15.23;;;7.20;99.90;;;;;;6162532;28;20126;-85
2021/03/05 02:37:32;;;;;;;19.33;14.52;;;7.20;99.90;;;;;;6157616;28;20031;-85
2021/03/05 02:40:38;;;;;;;20.85;15.10;;;7.00;99.90;;;;;;6139338;28;20031;-91
2021/03/05 02:43:39;;;;;;;21.75;15.77;;;7.00;99.90;;;;;;6157549;28;20370;-85
2021/03/05 02:46:40;;;;;;;19.40;14.90;;;7.00;99.90;;;;;;6126044;28;20117;-85
2021/03/05 02:49:41;;;;;;;17.08;12.98;;;;;;;;;;6137137;28;20030;-84
2021/03/05 02:52:42;;;;;;;11.95;9.60;;;7.30;99.90;;;;;;6153484;28;20022;-84
2021/03/05 02:55:43;;;;;;;12.75;9.23;;;;;;;;;;6135192;28;20030;-87
2021/03/05 02:58:48;;;;;;;12.52;10.02;;;7.00;99.90;;;;;;6129271;28;20389;-84
2021/03/05 03:01:49;;;;;;;11.55;9.55;;;7.00;99.90;;;;;;6137806;28;20034;-87
2021/03/05 03:04:50;;;;;;;13.93;11.02;;;;;;;;;;6136928;28;20157;-85
2021/03/05 03:07:51;;;;;;;16.77;11.55;;;;;;;;;;6168840;28;20461;-87
2021/03/05 03:10:52;;;;;;;15.98;12.52;;;7.20;99.90;;;;;;6153895;28;20809;-91
2021/03/05 03:13:53;;;;;;;18.95;13.02;;;;;;;;;;6147745;28;20139;-85
2021/03/05 03:16:53;;;;;;;18.02;12.75;;;6.90;99.90;;;;;;6140653;28;20058;-89
2021/03/05 03:19:54;;;;;;;18.30;14.00;;;;;;;;;;6128843;28;20063;-85
2021/03/05 03:22:55;;;;;;;18.80;14.40;;;7.10;99.90;;;;;;6151972;28;20438;-85
2021/03/05 03:26:01;;;;;;;20.23;16.00;;;6.90;99.90;;;;;;6135162;28;20162;-85
2021/03/05 03:29:05;;;;;;;19.25;15.10;;;6.80;99.90;;;;;;6124847;28;20073;-85
2021/03/05 03:32:06;;;;;;;19.73;15.25;;;6.70;99.90;;;;;;6139156;28;20030;-85
2021/03/05 03:35:08;;;;;;;21.33;16.45;;;6.90;99.90;;;;;;6137346;28;20093;-85
2021/03/05 03:38:09;;;;;;;20.90;16.17;;;6.30;99.90;;;;;;6130997;28;20039;-85
2021/03/05 03:41:11;;;;;;;19.70;15.10;;;7.00;99.90;;;;;;6123532;28;20449;-85
2021/03/05 03:44:13;;;;;;;19.85;15.27;;;;;;;;;;6155008;28;20038;-91
2021/03/05 03:47:13;;;;;;;19.50;15.63;;;7.00;99.90;;;;;;6148039;28;20034;-90
2021/03/05 03:50:28;;;;;;;21.83;16.73;;;6.90;99.90;;;;;;6138870;28;20077;-86
2021/03/05 03:53:29;;;;;;;22.50;15.93;;;6.80;99.90;;;;;;6136531;28;20035;-85
2021/03/05 03:56:30;;;;;;;19.98;15.38;;;6.70;99.90;;;;;;6128281;28;20038;-90
2021/03/05 03:59:31;;;;;;;22.13;16.13;;;;;;;;;;6141530;28;20465;-88
2021/03/05 04:02:32;;;;;;;22.65;16.90;;;;;;;;;;6156122;28;20092;-84
2021/03/05 04:05:37;;;;;;;22.10;17.02;;;6.70;99.90;;;;;;6167683;28;20034;-85
2021/03/05 04:08:40;;;;;;;22.17;16.85;;;6.80;99.90;;;;;;6129529;28;20041;-88
2021/03/05 04:11:41;;;;;;;22.00;17.42;;;6.50;99.90;;;;;;6153390;28;20037;-87
2021/03/05 04:14:42;;;;;;;22.70;17.63;;;;;;;;;;6135146;28;20462;-85
2021/03/05 04:17:44;;;;;;;20.70;16.58;;;6.70;99.90;;;;;;6165619;28;20106;-85
2021/03/05 04:20:45;;;;;;;24.07;18.73;;;;;;;;;;6144856;28;20093;-90
2021/03/05 04:23:46;;;;;;;22.60;17.85;;;6.60;99.90;;;;;;6157448;28;20535;-85
2021/03/05 04:26:47;;;;;;;23.60;18.90;;;;;;;;;;6131260;28;20026;-85
2021/03/05 04:29:47;;;;;;;24.08;18.75;;;6.60;99.90;;;;;;6142609;28;20127;-87
2021/03/05 04:32:48;;;;;;;26.80;20.50;;;;;;;;;;6128585;28;20053;-85
2021/03/05 04:35:49;;;;;;;26.23;20.23;;;6.40;99.50;;;;;;6146594;28;20090;-84
2021/03/05 04:38:50;;;;;;;28.35;20.35;;;;;;;;;;6126345;28;20101;-84
2021/03/05 04:41:51;;;;;;;29.27;21.83;;;6.40;99.60;;;;;;6147343;28;20076;-85
2021/03/05 04:44:52;;;;;;;27.40;20.88;;;;;;;;;;6137613;28;20038;-88
2021/03/05 04:47:52;;;;;;;28.85;21.83;;;6.30;99.60;;;;;;6157348;28;20033;-84
2021/03/05 04:50:53;;;;;;;28.38;21.98;;;6.30;99.90;;;;;;6133116;28;20488;-85
2021/03/05 04:53:54;;;;;;;28.77;22.75;;;;;;;;;;6144649;28;20031;-86
2021/03/05 04:56:55;;;;;;;31.23;23.20;;;6.20;99.50;;;;;;6170442;28;20125;-85
2021/03/05 04:59:55;;;;;;;30.27;23.42;;;6.20;99.90;;;;;;6138680;28;20431;-84
2021/03/05 05:02:56;;;;;;;29.75;22.83;;;6.20;99.90;;;;;;6142425;28;20081;-85
2021/03/05 05:05:57;;;;;;;32.35;24.63;;;;;;;;;;6130561;28;20030;-85
2021/03/05 05:08:57;;;;;;;31.92;24.67;;;6.10;99.90;;;;;;6172173;28;20106;-85
2021/03/05 05:11:58;;;;;;;33.22;24.63;;;;;;;;;;6146683;28;20097;-85
2021/03/05 05:14:59;;;;;;;31.85;25.45;;;6.00;99.90;;;;;;6145975;28;20066;-85
2021/03/05 05:18:02;;;;;;;32.25;24.75;;;6.10;99.90;;;;;;6128071;28;20031;-86
2021/03/05 05:21:03;;;;;;;35.28;26.60;;;5.90;99.90;;;;;;6141600;28;20086;-84
2021/03/05 05:24:26;;;;;;;36.35;27.25;;;6.20;99.90;;;;;;6147984;28;20030;-84
2021/03/05 05:27:26;;;;;;;36.10;26.63;;;;;;;;;;6163384;28;20054;-85
2021/03/05 05:30:27;;;;;;;35.92;27.75;;;6.00;99.90;;;;;;6152887;28;20030;-85
2021/03/05 05:33:28;;;;;;;34.85;27.13;;;;;;;;;;6141439;28;20457;-85
2021/03/05 05:36:29;;;;;;;37.75;28.08;;;5.90;99.90;;;;;;6158624;28;20488;-85
2021/03/05 05:39:30;;;;;;;35.13;27.13;;;;;;;;;;6131476;28;20110;-85
2021/03/05 05:42:30;;;;;;;35.85;26.58;;;5.90;99.90;;;;;;6154226;28;20034;-85
2021/03/05 05:45:31;;;;;;;47.30;28.20;;;;;;;;;;6136969;28;20027;-84
2021/03/05 05:48:37;;;;;;;37.17;27.27;;;5.90;99.90;;;;;;6149412;28;20114;-84
2021/03/05 05:51:39;;;;;;;34.53;26.33;;;6.10;99.90;;;;;;6140626;28;20106;-84
2021/03/05 05:54:40;;;;;;;36.03;27.08;;;;;;;;;;6139805;28;20034;-85
2021/03/05 05:57:41;;;;;;;35.55;27.08;;;6.20;99.90;;;;;;6147121;28;20031;-84
2021/03/05 06:00:42;;;;;;;36.10;26.80;;;6.00;99.90;;;;;;6139355;28;20436;-86
2021/03/05 06:03:42;;;;;;;37.60;28.27;;;6.00;99.90;;;;;;6138653;28;20035;-88
2021/03/05 06:06:43;;;;;;;34.90;27.98;;;5.90;99.90;;;;;;6136057;28;20178;-84
2021/03/05 06:09:44;;;;;;;38.60;27.15;;;;;;;;;;6126422;28;20470;-85
2021/03/05 06:12:46;;;;;;;35.25;27.08;;;5.80;99.90;;;;;;6153593;28;20019;-86
2021/03/05 06:16:10;;;;;;;33.88;24.90;;;5.70;99.90;;;;;;6144216;28;20034;-86
2021/03/05 06:19:18;;;;;;;34.95;26.13;;;6.10;99.90;;;;;;6147764;28;20060;-85
2021/03/05 06:22:23;;;;;;;37.17;28.17;;;6.20;99.90;;;;;;6152982;28;20030;-85
2021/03/05 06:25:36;;;;;;;35.97;27.17;;;5.70;99.90;;;;;;6148355;28;20026;-87
2021/03/05 06:28:37;;;;;;;35.10;26.63;;;6.00;99.90;;;;;;6160784;28;20027;-84
2021/03/05 06:31:38;;;;;;;34.33;25.05;;;;;;;;;;6137934;28;20030;-86
2021/03/05 06:34:51;;;;;;;35.97;25.60;;;5.70;99.90;;;;;;6155247;28;20085;-84
2021/03/05 06:37:52;;;;;;;33.75;24.77;;;5.80;99.90;;;;;;6151252;28;20038;-88
2021/03/05 06:40:54;;;;;;;32.58;22.80;;;5.70;99.90;;;;;;6133873;28;20034;-88
2021/03/05 06:43:59;;;;;;;30.92;21.95;;;5.80;99.90;;;;;;6134696;28;20038;-83
2021/03/05 06:47:25;;;;;;;31.05;22.00;;;5.60;99.90;;;;;;6127480;28;20041;-84
2021/03/05 06:50:26;;;;;;;29.60;19.60;;;5.70;99.90;;;;;;6144617;28;20030;-83
2021/03/05 06:53:26;;;;;;;30.60;20.38;;;5.60;99.90;;;;;;6138648;28;20397;-85
2021/03/05 06:56:27;;;;;;;31.73;20.67;;;5.60;99.90;;;;;;6133085;28;20392;-86
2021/03/05 06:59:58;;;;;;;30.92;20.40;;;5.70;99.90;;;;;;6161273;28;20038;-88
2021/03/05 07:02:58;;;;;;;31.33;19.92;;;5.50;99.90;;;;;;6152803;28;20075;-82
2021/03/05 07:05:59;;;;;;;28.95;19.13;;;5.50;99.90;;;;;;6157865;28;20026;-87
2021/03/05 07:08:59;;;;;;;29.95;19.20;;;5.20;99.90;;;;;;6142987;28;20026;-81
2021/03/05 07:12:01;;;;;;;26.55;17.52;;;5.30;99.90;;;;;;6139355;28;20031;-84
2021/03/05 07:15:06;;;;;;;32.60;19.75;;;5.40;99.90;;;;;;6140335;28;20042;-85
2021/03/05 07:18:07;;;;;;;27.95;18.75;;;5.30;99.90;;;;;;6123592;28;20176;-83
2021/03/05 07:21:08;;;;;;;27.60;17.63;;;5.40;99.90;;;;;;6122344;28;20145;-82
2021/03/05 07:24:10;;;;;;;28.50;17.23;;;5.30;99.90;;;;;;6122260;28;20035;-83
2021/03/05 07:27:11;;;;;;;26.52;17.75;;;5.40;99.90;;;;;;6128783;28;20469;-82
2021/03/05 07:30:16;;;;;;;27.85;17.33;;;5.40;99.90;;;;;;6122759;28;20062;-82
2021/03/05 07:33:16;;;;;;;27.13;18.25;;;5.40;99.90;;;;;;6122892;28;20033;-82
2021/03/05 07:36:18;;;;;;;28.67;17.83;;;5.40;99.90;;;;;;6122273;28;20066;-81
2021/03/05 07:39:32;;;;;;;26.25;16.77;;;5.40;99.90;;;;;;6141433;28;20039;-85
2021/03/05 07:42:33;;;;;;;25.05;16.30;;;5.40;99.90;;;;;;6155809;28;20030;-84
2021/03/05 07:50:24;;;;;;;25.90;16.67;;;5.80;99.90;;;;;;6181604;28;20030;-90
2021/03/05 07:57:50;;;;;;;24.73;15.60;;;6.10;99.90;;;;;;6119657;28;20050;-85
2021/03/05 08:00:52;;;;;;;26.58;15.93;;;;;;;;;;6141920;28;20084;-85
2021/03/05 08:03:54;;;;;;;23.90;15.55;;;6.20;97.90;;;;;;6150489;28;20030;-85
2021/03/05 08:07:10;;;;;;;26.98;16.38;;;6.20;98.60;;;;;;6139428;28;20034;-90
2021/03/05 08:10:34;;;;;;;26.65;16.52;;;6.30;99.40;;;;;;6133058;28;20027;-87
2021/03/05 08:13:44;;;;;;;26.23;16.27;;;6.20;97.80;;;;;;6153044;28;20077;-86
2021/03/05 08:16:44;;;;;;;26.75;16.17;;;6.20;99.40;;;;;;6164212;28;20049;-85
2021/03/05 08:19:45;;;;;;;25.50;15.98;;;6.10;99.60;;;;;;6131168;28;20485;-89
2021/03/05 08:22:58;;;;;;;27.10;16.83;;;6.00;99.20;;;;;;6152926;28;20110;-85
2021/03/05 08:25:59;;;;;;;25.88;16.55;;;6.50;99.90;;;;;;6167717;28;20034;-90
2021/03/05 08:29:00;;;;;;;24.42;16.13;;;6.20;99.90;;;;;;6129871;28;20030;-88
2021/03/05 08:32:01;;;;;;;24.88;15.25;;;;;;;;;;6134814;28;20508;-85
2021/03/05 08:35:02;;;;;;;25.38;15.85;;;6.10;97.30;;;;;;6149712;28;20473;-84
2021/03/05 08:38:05;;;;;;;23.95;16.85;;;6.10;98.80;;;;;;6164810;28;20022;-85
2021/03/05 08:41:14;;;;;;;25.67;16.10;;;6.30;98.80;;;;;;6157219;28;20031;-85
2021/03/05 08:44:15;;;;;;;25.45;16.02;;;6.30;99.90;;;;;;6127495;28;20030;-85
2021/03/05 08:47:15;;;;;;;24.48;16.73;;;6.50;99.90;;;;;;6127520;28;20041;-88
2021/03/05 08:50:17;;;;;;;24.63;15.30;;;6.30;97.10;;;;;;6134796;28;20030;-85
2021/03/05 08:53:18;;;;;;;24.67;16.10;;;;;;;;;;6131629;28;20054;-85
2021/03/05 08:56:22;;;;;;;23.42;15.88;;;6.10;99.90;;;;;;6155613;28;20042;-87
2021/03/05 08:59:23;;;;;;;26.35;16.10;;;;;;;;;;6136513;28;20026;-90
2021/03/05 09:02:25;;;;;;;27.43;16.67;;;;;;;;;;6166270;28;20385;-89
2021/03/05 09:05:26;;;;;;;28.60;17.80;;;;;;;;;;6153246;28;20272;-85
2021/03/05 09:08:27;;;;;;;29.85;18.30;;;;;;;;;;6149146;28;20019;-85
2021/03/05 09:11:28;;;;;;;27.48;18.92;;;5.80;99.90;;;;;;6144478;28;20038;-86
2021/03/05 09:14:29;;;;;;;29.17;18.23;;;;;;;;;;6131629;28;20031;-85
2021/03/05 09:17:30;;;;;;;29.40;17.83;;;5.70;99.90;;;;;;6142862;28;20077;-86
2021/03/05 09:20:36;;;;;;;28.90;19.05;;;5.90;95.70;;;;;;6145791;28;20129;-86
2021/03/05 09:23:41;;;;;;;29.77;18.92;;;6.20;97.80;;;;;;6167552;28;20031;-87
2021/03/05 09:26:42;;;;;;;27.90;17.70;;;;;;;;;;6137845;28;20027;-85
2021/03/05 09:29:43;;;;;;;27.17;17.98;;;;;;;;;;6151467;28;20535;-86
2021/03/05 09:32:48;;;;;;;27.13;18.33;;;6.00;96.10;;;;;;6153233;28;20513;-89
2021/03/05 09:35:49;;;;;;;28.98;17.98;;;6.20;98.10;;;;;;6133029;28;20487;-89
2021/03/05 09:38:57;;;;;;;30.17;19.90;;;6.10;96.00;;;;;;6136984;28;20035;-86
2021/03/05 09:41:57;;;;;;;28.70;18.25;;;6.30;96.20;;;;;;6134467;28;20050;-87
2021/03/05 09:44:58;;;;;;;28.92;17.40;;;6.30;99.00;;;;;;6137267;28;20065;-86
2021/03/05 09:47:59;;;;;;;30.13;18.27;;;;;;;;;;6151744;28;20473;-87
2021/03/05 09:51:04;;;;;;;29.92;18.00;;;6.00;99.90;;;;;;6154842;28;20488;-86
2021/03/05 09:54:05;;;;;;;25.63;17.52;;;;;;;;;;6133687;28;20055;-89
2021/03/05 09:57:06;;;;;;;22.88;15.48;;;;;;;;;;6155689;28;20053;-86
2021/03/05 10:00:07;;;;;;;28.73;17.92;;;6.00;95.70;;;;;;6145822;28;20035;-88
2021/03/05 10:03:09;;;;;;;25.65;17.33;;;6.20;96.90;;;;;;6155324;28;20123;-88
2021/03/05 10:06:16;;;;;;;29.75;18.77;;;6.10;95.80;;;;;;6136700;28;20031;-86
2021/03/05 10:09:20;;;;;;;26.83;17.08;;;6.10;96.50;;;;;;6137329;28;20030;-85
2021/03/05 10:12:28;;;;;;;28.75;18.48;;;6.20;95.80;;;;;;6135839;28;20077;-88
2021/03/05 10:15:28;;;;;;;27.65;18.25;;;6.40;99.10;;;;;;6134016;28;20122;-86
2021/03/05 10:18:35;;;;;;;29.35;18.40;;;6.40;99.30;;;;;;6128848;28;20089;-86
2021/03/05 10:21:46;;;;;;;27.75;17.67;;;6.20;99.90;;;;;;6128303;28;20163;-86
2021/03/05 10:24:47;;;;;;;26.80;18.27;;;;;;;;;;6129556;28;20042;-86
2021/03/05 10:27:48;;;;;;;28.77;17.63;;;6.10;99.90;;;;;;6150728;28;20475;-86
2021/03/05 10:30:50;;;;;;;25.75;16.88;;;4.00;97.70;;;;;;6121208;28;20034;-85
2021/03/05 10:33:51;;;;;;;28.60;17.73;;;;;;;;;;6145450;28;20034;-86
2021/03/05 10:36:52;;;;;;;27.40;18.02;;;6.20;99.90;;;;;;6146687;28;20425;-90
2021/03/05 10:39:53;;;;;;;26.85;16.95;;;;;;;;;;6125285;28;20031;-85
2021/03/05 10:42:54;;;;;;;28.92;18.38;;;;;;;;;;6149652;28;20031;-87
2021/03/05 10:45:55;;;;;;;26.73;17.05;;;;;;;;;;6143956;28;20394;-89
2021/03/05 10:48:56;;;;;;;25.85;16.23;;;;;;;;;;6150580;28;20033;-87
2021/03/05 10:51:58;;;;;;;35.70;21.67;;;;;;;;;;6148751;28;20023;-87
2021/03/05 10:54:59;;;;;;;26.67;18.33;;;;;;;;;;6149765;28;20031;-87
2021/03/05 10:58:00;;;;;;;29.10;19.27;;;;;;;;;;6144493;28;20111;-86
2021/03/05 11:01:01;;;;;;;27.63;17.98;;;;;;;;;;6140550;28;20102;-86
2021/03/05 11:04:02;;;;;;;25.40;17.63;;;;;;;;;;6152864;28;20070;-90
2021/03/05 11:07:03;;;;;;;58.60;30.95;;;;;;;;;;6139464;28;20125;-88
2021/03/05 11:10:04;;;;;;;28.85;18.42;;;;;;;;;;6144446;28;20065;-87
2021/03/05 11:13:05;;;;;;;23.90;16.38;;;;;;;;;;6138197;28;20118;-86
2021/03/05 11:16:07;;;;;;;27.08;18.05;;;;;;;;;;6147652;28;20031;-87
2021/03/05 11:19:07;;;;;;;24.70;17.23;;;6.80;99.90;;;;;;6141110;28;20175;-86
2021/03/05 11:22:09;;;;;;;27.27;17.90;;;;;;;;;;6146293;28;20027;-87
2021/03/05 11:25:10;;;;;;;24.08;17.08;;;6.60;94.00;;;;;;6161043;28;20114;-85
2021/03/05 11:28:13;;;;;;;25.77;17.45;;;6.90;95.40;;;;;;6159358;28;20389;-83
2021/03/05 11:31:14;;;;;;;24.20;16.58;;;6.80;95.70;;;;;;6138760;28;20456;-85
2021/03/05 11:34:15;;;;;;;24.23;16.67;;;;;;;;;;6153032;28;20041;-86
2021/03/05 11:37:16;;;;;;;23.70;16.45;;;6.90;93.30;;;;;;6140935;28;20440;-84
2021/03/05 11:40:18;;;;;;;24.93;16.43;;;6.90;99.30;;;;;;6134379;28;20050;-84
2021/03/05 11:43:18;;;;;;;28.55;17.70;;;7.10;94.40;;;;;;6131552;28;20046;-84
2021/03/05 11:46:20;;;;;;;26.30;18.38;;;7.20;94.20;;;;;;6138556;28;20041;-84
2021/03/05 11:49:21;;;;;;;23.00;15.30;;;;;;;;;;6143603;28;20043;-86
2021/03/05 11:52:22;;;;;;;25.88;17.35;;;7.10;99.90;;;;;;6138327;28;20035;-83
2021/03/05 11:55:32;;;;;;;28.85;16.83;;;7.30;92.30;;;;;;6123805;28;20046;-85
2021/03/05 11:58:33;;;;;;;30.83;17.08;;;7.30;95.00;;;;;;6127726;28;20034;-83
2021/03/05 12:01:34;;;;;;;25.42;17.15;;;;;;;;;;6144449;28;20113;-85
2021/03/05 12:04:35;;;;;;;23.50;16.25;;;7.30;99.90;;;;;;6142961;28;20477;-83
2021/03/05 12:07:36;;;;;;;23.73;16.17;;;;;;;;;;6147263;28;20034;-84
2021/03/05 12:10:37;;;;;;;21.25;15.60;;;7.50;99.90;;;;;;6143834;28;20050;-83
2021/03/05 12:13:37;;;;;;;21.00;15.30;;;7.50;99.90;;;;;;6123765;28;20031;-84
2021/03/05 12:16:38;;;;;;;21.98;15.35;;;;;;;;;;6135095;28;20133;-85
2021/03/05 12:19:39;;;;;;;24.05;16.23;;;7.60;98.10;;;;;;6157462;28;20054;-84
2021/03/05 12:22:40;;;;;;;23.50;15.40;;;7.40;99.90;;;;;;6127795;28;20049;-83
2021/03/05 12:25:41;;;;;;;22.63;16.15;;;;;;;;;;6135740;28;20144;-85
2021/03/05 12:28:42;;;;;;;22.17;15.57;;;7.70;99.90;;;;;;6146284;28;20463;-84
2021/03/05 12:31:45;;;;;;;21.38;15.07;;;7.40;93.50;;;;;;6138800;28;20045;-86
2021/03/05 12:34:46;;;;;;;18.23;13.38;;;7.30;99.90;;;;;;6138168;28;20034;-86
2021/03/05 12:37:47;;;;;;;22.63;15.10;;;;;;;;;;6130149;28;20038;-86
2021/03/05 12:40:48;;;;;;;23.95;15.35;;;7.50;93.20;;;;;;6145925;28;20035;-83
2021/03/05 12:43:49;;;;;;;23.50;16.17;;;7.40;99.90;;;;;;6134127;28;20065;-85
2021/03/05 12:46:50;;;;;;;22.38;15.20;;;;;;;;;;6138939;28;20030;-83
2021/03/05 12:54:16;;;;;;;20.00;15.05;;;7.20;94.20;;;;;;6181264;28;20035;-82
2021/03/05 12:57:17;;;;;;;20.80;14.15;;;6.90;99.90;;;;;;6142171;28;20477;-81
2021/03/05 13:00:18;;;;;;;19.17;13.43;;;;;;;;;;6121034;28;20133;-82
2021/03/05 13:03:19;;;;;;;21.67;14.68;;;;;;;;;;6149143;28;20520;-82
2021/03/05 13:06:20;;;;;;;17.50;12.93;;;;;;;;;;6146917;28;20092;-85
2021/03/05 13:09:21;;;;;;;16.52;12.00;;;;;;;;;;6186818;28;20030;-82
2021/03/05 13:12:22;;;;;;;18.20;12.30;;;7.30;99.90;;;;;;6166668;28;20031;-80
2021/03/05 13:15:23;;;;;;;16.27;11.13;;;;;;;;;;6128855;28;20180;-83
2021/03/05 13:18:24;;;;;;;17.40;12.05;;;;;;;;;;6153589;28;20076;-82
2021/03/05 13:21:25;;;;;;;16.38;10.85;;;;;;;;;;6166165;28;20060;-81
2021/03/05 13:24:26;;;;;;;14.27;10.60;;;;;;;;;;6164482;28;20022;-82
2021/03/05 13:27:27;;;;;;;16.77;11.75;;;6.90;97.30;;;;;;6164072;28;20125;-83
2021/03/05 13:30:28;;;;;;;15.73;10.95;;;6.90;96.20;;;;;;6152446;28;20402;-84
2021/03/05 13:33:28;;;;;;;20.30;11.15;;;6.80;94.70;;;;;;6127269;28;20035;-81
2021/03/05 13:36:30;;;;;;;15.88;11.40;;;6.80;94.90;;;;;;6153372;28;20145;-82
2021/03/05 13:39:30;;;;;;;16.48;11.07;;;6.70;94.30;;;;;;6141213;28;20026;-81
2021/03/05 13:42:31;;;;;;;16.35;11.30;;;6.40;99.90;;;;;;6135194;28;20488;-81
2021/03/05 13:45:31;;;;;;;17.73;12.02;;;6.60;94.10;;;;;;6127830;28;20038;-81
2021/03/05 13:48:33;;;;;;;18.08;12.23;;;;;;;;;;6153203;28;20034;-83
2021/03/05 13:51:33;;;;;;;16.90;10.85;;;6.20;92.60;;;;;;6148599;28;20030;-82
2021/03/05 13:54:34;;;;;;;17.20;12.13;;;6.20;94.00;;;;;;6131469;28;20035;-81
2021/03/05 13:57:35;;;;;;;19.13;12.15;;;6.80;94.30;;;;;;6138472;28;20401;-85
2021/03/05 14:00:36;;;;;;;16.17;11.25;;;6.00;94.70;;;;;;6140150;28;20058;-82
2021/03/05 14:03:37;;;;;;;17.33;11.77;;;;;;;;;;6152107;28;20030;-85
2021/03/05 14:06:37;;;;;;;18.35;12.35;;;5.90;99.90;;;;;;6156989;28;20018;-81
2021/03/05 14:09:38;;;;;;;20.83;13.48;;;6.60;95.80;;;;;;6137553;28;20041;-82
2021/03/05 14:12:39;;;;;;;17.80;11.45;;;6.00;96.10;;;;;;6142240;28;20034;-85
2021/03/05 14:15:41;;;;;;;18.33;12.10;;;;;;;;;;6135657;28;20101;-82
2021/03/05 14:18:43;;;;;;;;;;;5.90;93.50;;;;;;6171453;28;20090;-83
2021/03/05 14:21:43;;;;;;;18.45;11.40;;;6.20;99.90;;;;;;6146035;28;20029;-88
2021/03/05 14:24:44;;;;;;;17.83;11.40;;;6.40;94.80;;;;;;6126462;28;20031;-85
2021/03/05 14:27:50;;;;;;;16.80;10.60;;;5.90;94.50;;;;;;6137246;28;20388;-79
2021/03/05 14:30:52;;;;;;;17.67;11.63;;;6.00;95.10;;;;;;6133463;28;20497;-81
2021/03/05 14:33:52;;;;;;;19.38;12.35;;;5.90;95.20;;;;;;6139594;28;20038;-80
2021/03/05 14:36:53;;;;;;;16.75;10.90;;;6.10;94.10;;;;;;6130773;28;20049;-82
2021/03/05 14:39:54;;;;;;;15.77;10.88;;;6.00;94.30;;;;;;6139048;28;20150;-84
2021/03/05 14:42:55;;;;;;;20.40;13.27;;;;;;;;;;6138951;28;20023;-81
2021/03/05 14:45:56;;;;;;;16.00;10.68;;;6.00;92.20;;;;;;6157063;28;20053;-84
2021/03/05 14:48:57;;;;;;;13.85;9.85;;;6.10;94.10;;;;;;6143220;28;20030;-86
2021/03/05 14:51:58;;;;;;;15.88;10.70;;;5.80;99.90;;;;;;6154757;28;20034;-87
2021/03/05 14:54:59;;;;;;;17.33;13.77;;;;;;;;;;6130557;28;20019;-81
2021/03/05 14:58:00;;;;;;;15.45;11.93;;;5.90;99.90;;;;;;6167098;28;20029;-82
2021/03/05 15:01:01;;;;;;;17.85;13.68;;;5.90;92.40;;;;;;6152948;28;20034;-81
2021/03/05 15:04:02;;;;;;;18.23;11.97;;;5.70;99.90;;;;;;6141157;28;20487;-82
2021/03/05 15:07:03;;;;;;;15.98;12.05;;;5.60;93.90;;;;;;6125057;28;20031;-81
2021/03/05 15:10:04;;;;;;;17.35;11.23;;;5.50;99.90;;;;;;6148484;28;20404;-85
2021/03/05 15:13:05;;;;;;;19.52;11.73;;;5.40;99.90;;;;;;6151578;28;20090;-83
2021/03/05 15:16:06;;;;;;;20.95;13.48;;;5.20;99.90;;;;;;6140963;28;20042;-82
2021/03/05 15:19:06;;;;;;;16.05;11.65;;;5.50;99.90;;;;;;6135404;28;20038;-83
2021/03/05 15:22:08;;;;;;;24.65;16.17;;;;;;;;;;6125675;28;20160;-83
2021/03/05 15:25:09;;;;;;;17.80;10.60;;;5.20;99.90;;;;;;6140043;28;20065;-82
2021/03/05 15:28:10;;;;;;;15.85;9.93;;;;;;;;;;6124171;28;20114;-80
2021/03/05 15:31:10;;;;;;;16.00;10.18;;;5.20;99.90;;;;;;6149626;28;20023;-84
2021/03/05 15:34:11;;;;;;;17.33;10.32;;;;;;;;;;6130662;28;20118;-82
2021/03/05 15:37:13;;;;;;;15.23;9.85;;;;;;;;;;6136061;28;20596;-83
2021/03/05 15:40:14;;;;;;;16.52;10.18;;;5.30;96.00;;;;;;6146580;28;20031;-81
2021/03/05 15:43:15;;;;;;;14.85;9.77;;;5.20;99.90;;;;;;6135108;28;20129;-85
2021/03/05 15:46:16;;;;;;;16.33;10.60;;;;;;;;;;6159461;28;20466;-83
2021/03/05 15:49:17;;;;;;;18.13;10.60;;;;;;;;;;6150449;28;20521;-81
2021/03/05 15:52:18;;;;;;;13.82;9.75;;;5.40;99.90;;;;;;6133656;28;20378;-87
2021/03/05 15:55:19;;;;;;;16.38;10.60;;;5.10;99.90;;;;;;6154006;28;20072;-83
2021/03/05 15:58:20;;;;;;;15.95;10.15;;;;;;;;;;6145720;28;20039;-82
2021/03/05 16:01:20;;;;;;;14.98;9.50;;;5.10;99.90;;;;;;6148416;28;20019;-82
2021/03/05 16:04:21;;;;;;;16.92;10.27;;;5.20;95.40;;;;;;6134676;28;20031;-84
2021/03/05 16:07:22;;;;;;;14.25;8.75;;;5.20;92.90;;;;;;6151338;28;20031;-82
2021/03/05 16:10:23;;;;;;;14.30;9.65;;;5.20;99.90;;;;;;6120804;28;20438;-85
2021/03/05 16:13:24;;;;;;;15.60;9.25;;;;;;;;;;6159220;28;20024;-83
2021/03/05 16:16:25;;;;;;;13.70;9.82;;;;;;;;;;6137705;28;20062;-81
2021/03/05 16:19:28;;;;;;;17.10;10.05;;;5.20;91.80;;;;;;6139535;28;20023;-83
2021/03/05 16:22:29;;;;;;;19.23;10.45;;;5.30;95.80;;;;;;6164162;28;20038;-84
2021/03/05 16:25:30;;;;;;;16.48;10.65;;;5.10;99.90;;;;;;6134142;28;20121;-83
2021/03/05 16:28:31;;;;;;;15.98;10.55;;;;;;;;;;6161949;28;20038;-84